sensor_id;sensor_type;location;lat;lon;timestamp;P1;durP1;ratioP1;P2;durP2;ratioP2
45326;SDS011;31062;49.678;24.560;2024-02-23T00:01:51;7.78;;;5.10;;
45326;SDS011;31062;49.678;24.560;2024-02-23T00:04:57;14.32;;;7.32;;
45326;SDS011;31062;49.678;24.560;2024-02-23T00:08:03;9.60;;;6.38;;
45326;SDS011;31062;49.678;24.560;2024-02-23T00:11:09;11.15;;;7.47;;
45326;SDS011;31062;49.678;24.560;2024-02-23T00:14:15;15.10;;;9.23;;
45326;SDS011;31062;49.678;24.560;2024-02-23T00:17:21;18.52;;;10.20;;
45326;SDS011;31062;49.678;24.560;2024-02-23T00:20:27;18.40;;;9.88;;
45326;SDS011;31062;49.678;24.560;2024-02-23T00:23:33;21.17;;;8.00;;
45326;SDS011;31062;49.678;24.560;2024-02-23T00:26:39;13.05;;;5.75;;
45326;SDS011;31062;49.678;24.560;2024-02-23T00:29:44;9.60;;;5.43;;
45326;SDS011;31062;49.678;24.560;2024-02-23T00:32:50;9.77;;;3.67;;
45326;SDS011;31062;49.678;24.560;2024-02-23T00:35:56;6.63;;;4.22;;
45326;SDS011;31062;49.678;24.560;2024-02-23T00:39:01;6.25;;;3.88;;
45326;SDS011;31062;49.678;24.560;2024-02-23T00:42:07;7.13;;;3.50;;
45326;SDS011;31062;49.678;24.560;2024-02-23T00:45:13;5.40;;;3.92;;
45326;SDS011;31062;49.678;24.560;2024-02-23T00:48:19;4.93;;;3.28;;
45326;SDS011;31062;49.678;24.560;2024-02-23T00:51:24;5.80;;;3.60;;
45326;SDS011;31062;49.678;24.560;2024-02-23T00:54:32;9.15;;;3.28;;
45326;SDS011;31062;49.678;24.560;2024-02-23T00:57:38;6.38;;;3.33;;
45326;SDS011;31062;49.678;24.560;2024-02-23T01:00:44;8.02;;;3.58;;
45326;SDS011;31062;49.678;24.560;2024-02-23T01:03:50;6.65;;;2.80;;
45326;SDS011;31062;49.678;24.560;2024-02-23T01:06:57;7.22;;;3.80;;
45326;SDS011;31062;49.678;24.560;2024-02-23T01:10:03;4.55;;;3.38;;
45326;SDS011;31062;49.678;24.560;2024-02-23T01:13:09;6.22;;;3.25;;
45326;SDS011;31062;49.678;24.560;2024-02-23T01:16:15;6.60;;;3.83;;
45326;SDS011;31062;49.678;24.560;2024-02-23T01:19:21;6.28;;;3.75;;
45326;SDS011;31062;49.678;24.560;2024-02-23T01:22:27;5.38;;;3.22;;
45326;SDS011;31062;49.678;24.560;2024-02-23T01:25:32;7.93;;;3.15;;
45326;SDS011;31062;49.678;24.560;2024-02-23T01:28:38;5.85;;;3.30;;
45326;SDS011;31062;49.678;24.560;2024-02-23T01:31:44;6.00;;;3.90;;
45326;SDS011;31062;49.678;24.560;2024-02-23T01:34:50;8.50;;;3.90;;
45326;SDS011;31062;49.678;24.560;2024-02-23T01:37:58;5.90;;;3.90;;
45326;SDS011;31062;49.678;24.560;2024-02-23T01:41:04;6.43;;;3.72;;
45326;SDS011;31062;49.678;24.560;2024-02-23T01:44:10;9.80;;;4.50;;
45326;SDS011;31062;49.678;24.560;2024-02-23T01:47:16;11.50;;;3.75;;
45326;SDS011;31062;49.678;24.560;2024-02-23T01:50:23;6.50;;;3.92;;
45326;SDS011;31062;49.678;24.560;2024-02-23T01:53:29;6.97;;;4.10;;
45326;SDS011;31062;49.678;24.560;2024-02-23T01:56:16;7.95;;;3.90;;
45326;SDS011;31062;49.678;24.560;2024-02-23T01:59:25;5.57;;;3.83;;
45326;SDS011;31062;49.678;24.560;2024-02-23T02:02:32;13.70;;;4.00;;
45326;SDS011;31062;49.678;24.560;2024-02-23T02:05:39;7.80;;;3.33;;
45326;SDS011;31062;49.678;24.560;2024-02-23T02:08:45;7.03;;;3.42;;
45326;SDS011;31062;49.678;24.560;2024-02-23T02:11:51;4.10;;;3.58;;
45326;SDS011;31062;49.678;24.560;2024-02-23T02:14:57;7.38;;;3.30;;
45326;SDS011;31062;49.678;24.560;2024-02-23T02:18:03;7.40;;;3.40;;
45326;SDS011;31062;49.678;24.560;2024-02-23T02:21:09;10.65;;;4.07;;
45326;SDS011;31062;49.678;24.560;2024-02-23T02:24:14;7.93;;;3.67;;
45326;SDS011;31062;49.678;24.560;2024-02-23T02:27:20;4.95;;;3.30;;
45326;SDS011;31062;49.678;24.560;2024-02-23T02:30:26;6.35;;;3.30;;
45326;SDS011;31062;49.678;24.560;2024-02-23T02:33:31;4.32;;;3.35;;
45326;SDS011;31062;49.678;24.560;2024-02-23T02:36:37;7.03;;;3.60;;
45326;SDS011;31062;49.678;24.560;2024-02-23T02:39:43;8.38;;;4.60;;
45326;SDS011;31062;49.678;24.560;2024-02-23T02:42:51;5.68;;;4.50;;
45326;SDS011;31062;49.678;24.560;2024-02-23T02:45:57;6.40;;;3.92;;
45326;SDS011;31062;49.678;24.560;2024-02-23T02:49:03;4.50;;;2.97;;
45326;SDS011;31062;49.678;24.560;2024-02-23T02:52:11;4.38;;;3.20;;
45326;SDS011;31062;49.678;24.560;2024-02-23T02:55:17;5.47;;;3.17;;
45326;SDS011;31062;49.678;24.560;2024-02-23T02:58:22;4.05;;;2.28;;
45326;SDS011;31062;49.678;24.560;2024-02-23T03:01:28;4.50;;;2.97;;
45326;SDS011;31062;49.678;24.560;2024-02-23T03:04:34;12.40;;;3.72;;
45326;SDS011;31062;49.678;24.560;2024-02-23T03:07:39;4.70;;;2.97;;
45326;SDS011;31062;49.678;24.560;2024-02-23T03:10:46;4.82;;;3.22;;
45326;SDS011;31062;49.678;24.560;2024-02-23T03:13:52;5.57;;;3.30;;
45326;SDS011;31062;49.678;24.560;2024-02-23T03:16:58;4.20;;;2.75;;
45326;SDS011;31062;49.678;24.560;2024-02-23T03:20:04;4.18;;;3.00;;
45326;SDS011;31062;49.678;24.560;2024-02-23T03:23:11;4.25;;;2.95;;
45326;SDS011;31062;49.678;24.560;2024-02-23T03:26:16;3.28;;;2.78;;
45326;SDS011;31062;49.678;24.560;2024-02-23T03:29:22;6.40;;;3.20;;
45326;SDS011;31062;49.678;24.560;2024-02-23T03:32:31;5.25;;;2.85;;
45326;SDS011;31062;49.678;24.560;2024-02-23T03:35:37;4.82;;;2.90;;
45326;SDS011;31062;49.678;24.560;2024-02-23T03:38:43;3.35;;;2.47;;
45326;SDS011;31062;49.678;24.560;2024-02-23T03:41:53;5.35;;;2.80;;
45326;SDS011;31062;49.678;24.560;2024-02-23T03:44:58;4.28;;;2.60;;
45326;SDS011;31062;49.678;24.560;2024-02-23T03:48:05;4.30;;;3.28;;
45326;SDS011;31062;49.678;24.560;2024-02-23T03:51:10;3.47;;;2.55;;
45326;SDS011;31062;49.678;24.560;2024-02-23T03:54:16;2.70;;;2.47;;
45326;SDS011;31062;49.678;24.560;2024-02-23T03:57:22;3.45;;;2.40;;
45326;SDS011;31062;49.678;24.560;2024-02-23T04:00:32;6.72;;;2.95;;
45326;SDS011;31062;49.678;24.560;2024-02-23T04:03:38;3.83;;;2.60;;
45326;SDS011;31062;49.678;24.560;2024-02-23T04:06:44;3.03;;;2.45;;
45326;SDS011;31062;49.678;24.560;2024-02-23T04:09:50;4.85;;;2.75;;
45326;SDS011;31062;49.678;24.560;2024-02-23T04:12:58;5.15;;;3.38;;
45326;SDS011;31062;49.678;24.560;2024-02-23T04:16:03;4.75;;;3.13;;
45326;SDS011;31062;49.678;24.560;2024-02-23T04:19:11;5.25;;;3.33;;
45326;SDS011;31062;49.678;24.560;2024-02-23T04:22:17;6.43;;;3.50;;
45326;SDS011;31062;49.678;24.560;2024-02-23T04:25:25;4.95;;;3.53;;
45326;SDS011;31062;49.678;24.560;2024-02-23T04:28:30;6.13;;;3.58;;
45326;SDS011;31062;49.678;24.560;2024-02-23T04:31:37;6.03;;;3.72;;
45326;SDS011;31062;49.678;24.560;2024-02-23T04:34:43;5.72;;;3.70;;
45326;SDS011;31062;49.678;24.560;2024-02-23T04:37:49;3.75;;;2.88;;
45326;SDS011;31062;49.678;24.560;2024-02-23T04:40:54;5.13;;;3.65;;
45326;SDS011;31062;49.678;24.560;2024-02-23T04:44:00;3.28;;;2.78;;
45326;SDS011;31062;49.678;24.560;2024-02-23T04:47:06;5.05;;;3.08;;
45326;SDS011;31062;49.678;24.560;2024-02-23T04:50:12;6.38;;;2.78;;
45326;SDS011;31062;49.678;24.560;2024-02-23T04:53:18;3.10;;;2.38;;
45326;SDS011;31062;49.678;24.560;2024-02-23T04:56:26;4.57;;;2.72;;
45326;SDS011;31062;49.678;24.560;2024-02-23T04:59:32;5.03;;;2.97;;
45326;SDS011;31062;49.678;24.560;2024-02-23T05:02:37;5.05;;;2.80;;
45326;SDS011;31062;49.678;24.560;2024-02-23T05:05:43;6.15;;;4.18;;
45326;SDS011;31062;49.678;24.560;2024-02-23T05:08:49;6.90;;;5.75;;
45326;SDS011;31062;49.678;24.560;2024-02-23T05:11:55;9.57;;;5.97;;
45326;SDS011;31062;49.678;24.560;2024-02-23T05:15:01;5.88;;;5.28;;
45326;SDS011;31062;49.678;24.560;2024-02-23T05:18:06;5.00;;;4.45;;
45326;SDS011;31062;49.678;24.560;2024-02-23T05:21:14;5.72;;;4.88;;
45326;SDS011;31062;49.678;24.560;2024-02-23T05:24:20;8.73;;;7.38;;
45326;SDS011;31062;49.678;24.560;2024-02-23T05:27:28;6.82;;;5.32;;
45326;SDS011;31062;49.678;24.560;2024-02-23T05:30:34;4.85;;;4.18;;
45326;SDS011;31062;49.678;24.560;2024-02-23T05:33:40;3.78;;;2.88;;
45326;SDS011;31062;49.678;24.560;2024-02-23T05:36:46;4.18;;;2.92;;
45326;SDS011;31062;49.678;24.560;2024-02-23T05:39:53;4.30;;;3.80;;
45326;SDS011;31062;49.678;24.560;2024-02-23T05:42:59;7.07;;;3.42;;
45326;SDS011;31062;49.678;24.560;2024-02-23T05:46:05;3.45;;;2.72;;
45326;SDS011;31062;49.678;24.560;2024-02-23T05:49:11;5.13;;;3.28;;
45326;SDS011;31062;49.678;24.560;2024-02-23T05:52:18;18.77;;;4.85;;
45326;SDS011;31062;49.678;24.560;2024-02-23T05:55:24;8.32;;;4.75;;
45326;SDS011;31062;49.678;24.560;2024-02-23T05:58:30;6.80;;;4.18;;
45326;SDS011;31062;49.678;24.560;2024-02-23T06:01:36;9.38;;;5.05;;
45326;SDS011;31062;49.678;24.560;2024-02-23T06:04:43;5.70;;;5.10;;
45326;SDS011;31062;49.678;24.560;2024-02-23T06:07:49;4.63;;;3.65;;
45326;SDS011;31062;49.678;24.560;2024-02-23T06:10:55;8.00;;;5.43;;
45326;SDS011;31062;49.678;24.560;2024-02-23T06:14:00;5.32;;;4.68;;
45326;SDS011;31062;49.678;24.560;2024-02-23T06:17:07;13.20;;;4.47;;
45326;SDS011;31062;49.678;24.560;2024-02-23T06:20:13;7.95;;;3.92;;
45326;SDS011;31062;49.678;24.560;2024-02-23T06:23:19;3.10;;;2.63;;
45326;SDS011;31062;49.678;24.560;2024-02-23T06:26:25;5.13;;;3.42;;
45326;SDS011;31062;49.678;24.560;2024-02-23T06:29:31;9.60;;;3.40;;
45326;SDS011;31062;49.678;24.560;2024-02-23T06:32:37;7.15;;;4.60;;
45326;SDS011;31062;49.678;24.560;2024-02-23T06:36:03;5.53;;;3.42;;
45326;SDS011;31062;49.678;24.560;2024-02-23T06:39:09;5.30;;;3.78;;
45326;SDS011;31062;49.678;24.560;2024-02-23T06:42:15;9.88;;;4.85;;
45326;SDS011;31062;49.678;24.560;2024-02-23T06:45:21;10.45;;;5.10;;
45326;SDS011;31062;49.678;24.560;2024-02-23T06:48:27;8.23;;;4.82;;
45326;SDS011;31062;49.678;24.560;2024-02-23T06:51:33;8.93;;;5.50;;
45326;SDS011;31062;49.678;24.560;2024-02-23T06:54:39;8.13;;;5.57;;
45326;SDS011;31062;49.678;24.560;2024-02-23T06:57:45;12.23;;;6.35;;
45326;SDS011;31062;49.678;24.560;2024-02-23T07:00:51;19.48;;;8.35;;
45326;SDS011;31062;49.678;24.560;2024-02-23T07:03:57;9.15;;;6.63;;
45326;SDS011;31062;49.678;24.560;2024-02-23T07:07:04;8.43;;;5.90;;
45326;SDS011;31062;49.678;24.560;2024-02-23T07:10:12;4.80;;;4.03;;
45326;SDS011;31062;49.678;24.560;2024-02-23T07:13:18;3.85;;;3.00;;
45326;SDS011;31062;49.678;24.560;2024-02-23T07:16:24;4.65;;;3.00;;
45326;SDS011;31062;49.678;24.560;2024-02-23T07:19:30;3.63;;;2.65;;
45326;SDS011;31062;49.678;24.560;2024-02-23T07:22:35;5.00;;;3.95;;
45326;SDS011;31062;49.678;24.560;2024-02-23T07:25:41;4.88;;;3.35;;
45326;SDS011;31062;49.678;24.560;2024-02-23T07:28:47;9.80;;;5.03;;
45326;SDS011;31062;49.678;24.560;2024-02-23T07:31:53;12.20;;;5.15;;
45326;SDS011;31062;49.678;24.560;2024-02-23T07:35:00;10.15;;;4.20;;
45326;SDS011;31062;49.678;24.560;2024-02-23T07:38:06;4.25;;;3.05;;
45326;SDS011;31062;49.678;24.560;2024-02-23T07:41:12;4.82;;;3.35;;
45326;SDS011;31062;49.678;24.560;2024-02-23T07:44:21;4.22;;;3.22;;
45326;SDS011;31062;49.678;24.560;2024-02-23T07:47:27;7.28;;;4.10;;
45326;SDS011;31062;49.678;24.560;2024-02-23T07:50:33;5.45;;;3.17;;
45326;SDS011;31062;49.678;24.560;2024-02-23T07:53:39;8.52;;;3.17;;
45326;SDS011;31062;49.678;24.560;2024-02-23T07:56:45;7.32;;;4.22;;
45326;SDS011;31062;49.678;24.560;2024-02-23T07:59:51;6.10;;;3.38;;
45326;SDS011;31062;49.678;24.560;2024-02-23T08:02:56;13.55;;;7.13;;
45326;SDS011;31062;49.678;24.560;2024-02-23T08:06:02;21.35;;;8.18;;
45326;SDS011;31062;49.678;24.560;2024-02-23T08:09:08;10.60;;;6.65;;
45326;SDS011;31062;49.678;24.560;2024-02-23T08:12:15;5.70;;;4.00;;
45326;SDS011;31062;49.678;24.560;2024-02-23T08:15:25;4.72;;;3.17;;
45326;SDS011;31062;49.678;24.560;2024-02-23T08:18:31;3.70;;;2.97;;
45326;SDS011;31062;49.678;24.560;2024-02-23T08:21:37;16.08;;;4.35;;
45326;SDS011;31062;49.678;24.560;2024-02-23T08:24:23;6.55;;;3.13;;
45326;SDS011;31062;49.678;24.560;2024-02-23T08:27:29;8.63;;;3.28;;
45326;SDS011;31062;49.678;24.560;2024-02-23T08:30:34;6.07;;;3.38;;
45326;SDS011;31062;49.678;24.560;2024-02-23T08:33:40;9.60;;;3.53;;
45326;SDS011;31062;49.678;24.560;2024-02-23T08:36:26;6.75;;;4.28;;
45326;SDS011;31062;49.678;24.560;2024-02-23T08:39:11;18.33;;;9.23;;
45326;SDS011;31062;49.678;24.560;2024-02-23T08:41:58;22.75;;;12.30;;
45326;SDS011;31062;49.678;24.560;2024-02-23T08:45:04;20.33;;;9.50;;
45326;SDS011;31062;49.678;24.560;2024-02-23T08:48:10;14.60;;;8.32;;
45326;SDS011;31062;49.678;24.560;2024-02-23T08:51:16;16.23;;;7.68;;
45326;SDS011;31062;49.678;24.560;2024-02-23T08:54:22;19.83;;;8.63;;
45326;SDS011;31062;49.678;24.560;2024-02-23T08:57:27;22.35;;;9.32;;
45326;SDS011;31062;49.678;24.560;2024-02-23T09:00:33;12.68;;;6.22;;
45326;SDS011;31062;49.678;24.560;2024-02-23T09:03:39;6.22;;;3.95;;
45326;SDS011;31062;49.678;24.560;2024-02-23T09:06:44;10.57;;;4.50;;
45326;SDS011;31062;49.678;24.560;2024-02-23T09:09:50;14.20;;;5.43;;
45326;SDS011;31062;49.678;24.560;2024-02-23T09:12:56;10.32;;;4.07;;
45326;SDS011;31062;49.678;24.560;2024-02-23T09:15:41;9.63;;;4.38;;
45326;SDS011;31062;49.678;24.560;2024-02-23T09:18:28;13.27;;;5.55;;
45326;SDS011;31062;49.678;24.560;2024-02-23T09:21:13;12.00;;;6.32;;
45326;SDS011;31062;49.678;24.560;2024-02-23T09:23:59;8.75;;;5.10;;
45326;SDS011;31062;49.678;24.560;2024-02-23T09:26:48;9.43;;;4.68;;
45326;SDS011;31062;49.678;24.560;2024-02-23T09:29:34;6.32;;;4.20;;
45326;SDS011;31062;49.678;24.560;2024-02-23T09:32:40;12.43;;;3.67;;
45326;SDS011;31062;49.678;24.560;2024-02-23T09:35:47;5.20;;;3.63;;
45326;SDS011;31062;49.678;24.560;2024-02-23T09:38:53;3.40;;;3.08;;
45326;SDS011;31062;49.678;24.560;2024-02-23T09:41:58;4.15;;;1.90;;
45326;SDS011;31062;49.678;24.560;2024-02-23T09:45:06;3.53;;;2.47;;
45326;SDS011;31062;49.678;24.560;2024-02-23T09:48:13;3.50;;;2.95;;
45326;SDS011;31062;49.678;24.560;2024-02-23T09:51:27;1.58;;;1.48;;
45326;SDS011;31062;49.678;24.560;2024-02-23T09:54:33;5.05;;;1.67;;
45326;SDS011;31062;49.678;24.560;2024-02-23T09:57:20;3.05;;;1.88;;
45326;SDS011;31062;49.678;24.560;2024-02-23T10:00:22;4.88;;;3.53;;
45326;SDS011;31062;49.678;24.560;2024-02-23T10:03:28;5.85;;;3.83;;
45326;SDS011;31062;49.678;24.560;2024-02-23T10:06:35;8.82;;;3.45;;
45326;SDS011;31062;49.678;24.560;2024-02-23T10:09:41;4.80;;;3.25;;
45326;SDS011;31062;49.678;24.560;2024-02-23T10:12:47;5.47;;;3.50;;
45326;SDS011;31062;49.678;24.560;2024-02-23T10:15:53;3.08;;;2.78;;
45326;SDS011;31062;49.678;24.560;2024-02-23T10:19:01;3.25;;;2.78;;
45326;SDS011;31062;49.678;24.560;2024-02-23T10:22:06;4.30;;;2.10;;
45326;SDS011;31062;49.678;24.560;2024-02-23T10:25:12;2.63;;;2.15;;
45326;SDS011;31062;49.678;24.560;2024-02-23T10:28:18;2.13;;;1.90;;
45326;SDS011;31062;49.678;24.560;2024-02-23T10:31:27;1.98;;;1.30;;
45326;SDS011;31062;49.678;24.560;2024-02-23T10:34:33;2.97;;;1.30;;
45326;SDS011;31062;49.678;24.560;2024-02-23T10:37:42;1.20;;;1.02;;
45326;SDS011;31062;49.678;24.560;2024-02-23T10:40:49;1.40;;;1.15;;
45326;SDS011;31062;49.678;24.560;2024-02-23T10:43:55;2.00;;;1.30;;
45326;SDS011;31062;49.678;24.560;2024-02-23T10:47:01;2.63;;;1.65;;
45326;SDS011;31062;49.678;24.560;2024-02-23T10:50:08;1.23;;;1.10;;
45326;SDS011;31062;49.678;24.560;2024-02-23T10:53:14;1.63;;;1.10;;
45326;SDS011;31062;49.678;24.560;2024-02-23T10:56:22;1.60;;;1.25;;
45326;SDS011;31062;49.678;24.560;2024-02-23T10:59:27;1.65;;;1.40;;
45326;SDS011;31062;49.678;24.560;2024-02-23T11:02:33;2.17;;;1.50;;
45326;SDS011;31062;49.678;24.560;2024-02-23T11:05:43;2.08;;;1.63;;
45326;SDS011;31062;49.678;24.560;2024-02-23T11:08:48;2.70;;;2.05;;
45326;SDS011;31062;49.678;24.560;2024-02-23T11:11:55;3.42;;;2.17;;
45326;SDS011;31062;49.678;24.560;2024-02-23T11:15:02;4.13;;;2.90;;
45326;SDS011;31062;49.678;24.560;2024-02-23T11:18:21;4.95;;;3.08;;
45326;SDS011;31062;49.678;24.560;2024-02-23T11:21:33;4.90;;;2.63;;
45326;SDS011;31062;49.678;24.560;2024-02-23T11:24:45;5.30;;;3.08;;
45326;SDS011;31062;49.678;24.560;2024-02-23T11:27:51;4.22;;;2.50;;
45326;SDS011;31062;49.678;24.560;2024-02-23T11:30:57;4.28;;;2.55;;
45326;SDS011;31062;49.678;24.560;2024-02-23T11:34:08;5.70;;;2.63;;
45326;SDS011;31062;49.678;24.560;2024-02-23T11:37:13;6.82;;;2.95;;
45326;SDS011;31062;49.678;24.560;2024-02-23T11:40:23;5.60;;;3.80;;
45326;SDS011;31062;49.678;24.560;2024-02-23T11:43:30;10.57;;;6.28;;
45326;SDS011;31062;49.678;24.560;2024-02-23T11:46:39;8.45;;;5.18;;
45326;SDS011;31062;49.678;24.560;2024-02-23T11:49:29;10.48;;;6.57;;
45326;SDS011;31062;49.678;24.560;2024-02-23T11:52:36;11.88;;;6.00;;
45326;SDS011;31062;49.678;24.560;2024-02-23T11:55:42;5.95;;;4.63;;
45326;SDS011;31062;49.678;24.560;2024-02-23T11:58:49;3.70;;;2.47;;
45326;SDS011;31062;49.678;24.560;2024-02-23T12:01:54;5.22;;;2.70;;
45326;SDS011;31062;49.678;24.560;2024-02-23T12:05:00;4.97;;;2.72;;
45326;SDS011;31062;49.678;24.560;2024-02-23T12:08:06;2.33;;;1.52;;
45326;SDS011;31062;49.678;24.560;2024-02-23T12:11:13;3.60;;;1.85;;
45326;SDS011;31062;49.678;24.560;2024-02-23T12:14:20;3.45;;;2.53;;
45326;SDS011;31062;49.678;24.560;2024-02-23T12:17:07;3.05;;;1.98;;
45326;SDS011;31062;49.678;24.560;2024-02-23T12:19:58;6.13;;;3.08;;
45326;SDS011;31062;49.678;24.560;2024-02-23T12:23:05;3.50;;;2.00;;
45326;SDS011;31062;49.678;24.560;2024-02-23T12:26:12;2.88;;;1.75;;
45326;SDS011;31062;49.678;24.560;2024-02-23T12:29:02;3.97;;;1.90;;
45326;SDS011;31062;49.678;24.560;2024-02-23T12:32:08;5.13;;;2.35;;
45326;SDS011;31062;49.678;24.560;2024-02-23T12:35:14;3.65;;;2.55;;
45326;SDS011;31062;49.678;24.560;2024-02-23T12:38:21;3.08;;;2.75;;
45326;SDS011;31062;49.678;24.560;2024-02-23T12:41:28;6.65;;;3.38;;
45326;SDS011;31062;49.678;24.560;2024-02-23T12:44:33;4.68;;;3.30;;
45326;SDS011;31062;49.678;24.560;2024-02-23T12:47:39;7.03;;;4.10;;
45326;SDS011;31062;49.678;24.560;2024-02-23T12:50:45;7.75;;;4.20;;
45326;SDS011;31062;49.678;24.560;2024-02-23T12:53:51;6.72;;;3.78;;
45326;SDS011;31062;49.678;24.560;2024-02-23T12:56:57;6.82;;;4.40;;
45326;SDS011;31062;49.678;24.560;2024-02-23T13:00:03;6.50;;;3.92;;
45326;SDS011;31062;49.678;24.560;2024-02-23T13:03:09;7.35;;;4.30;;
45326;SDS011;31062;49.678;24.560;2024-02-23T13:06:15;10.90;;;6.03;;
45326;SDS011;31062;49.678;24.560;2024-02-23T13:09:21;7.47;;;4.97;;
45326;SDS011;31062;49.678;24.560;2024-02-23T13:12:27;7.05;;;3.67;;
45326;SDS011;31062;49.678;24.560;2024-02-23T13:15:33;6.32;;;3.50;;
45326;SDS011;31062;49.678;24.560;2024-02-23T13:18:21;6.22;;;3.80;;
45326;SDS011;31062;49.678;24.560;2024-02-23T13:21:27;6.00;;;3.13;;
45326;SDS011;31062;49.678;24.560;2024-02-23T13:24:33;7.47;;;3.50;;
45326;SDS011;31062;49.678;24.560;2024-02-23T13:27:39;4.32;;;2.85;;
45326;SDS011;31062;49.678;24.560;2024-02-23T13:30:44;4.40;;;3.17;;
45326;SDS011;31062;49.678;24.560;2024-02-23T13:33:50;4.90;;;3.25;;
45326;SDS011;31062;49.678;24.560;2024-02-23T13:36:56;4.45;;;2.72;;
45326;SDS011;31062;49.678;24.560;2024-02-23T13:40:02;5.15;;;3.35;;
45326;SDS011;31062;49.678;24.560;2024-02-23T13:43:07;7.40;;;4.65;;
45326;SDS011;31062;49.678;24.560;2024-02-23T13:46:13;6.60;;;4.57;;
45326;SDS011;31062;49.678;24.560;2024-02-23T13:49:19;7.32;;;4.70;;
45326;SDS011;31062;49.678;24.560;2024-02-23T13:52:24;7.93;;;5.28;;
45326;SDS011;31062;49.678;24.560;2024-02-23T13:55:30;5.00;;;4.22;;
45326;SDS011;31062;49.678;24.560;2024-02-23T13:58:36;9.43;;;4.55;;
45326;SDS011;31062;49.678;24.560;2024-02-23T14:01:42;9.43;;;4.93;;
45326;SDS011;31062;49.678;24.560;2024-02-23T14:04:48;9.40;;;5.15;;
45326;SDS011;31062;49.678;24.560;2024-02-23T14:07:55;11.20;;;6.80;;
45326;SDS011;31062;49.678;24.560;2024-02-23T14:11:01;11.38;;;6.43;;
45326;SDS011;31062;49.678;24.560;2024-02-23T14:14:07;11.07;;;4.75;;
45326;SDS011;31062;49.678;24.560;2024-02-23T14:17:12;7.63;;;6.05;;
45326;SDS011;31062;49.678;24.560;2024-02-23T14:20:18;8.73;;;6.30;;
45326;SDS011;31062;49.678;24.560;2024-02-23T14:23:24;12.80;;;7.90;;
45326;SDS011;31062;49.678;24.560;2024-02-23T14:26:30;16.77;;;10.15;;
45326;SDS011;31062;49.678;24.560;2024-02-23T14:29:36;12.02;;;7.88;;
45326;SDS011;31062;49.678;24.560;2024-02-23T14:32:24;17.83;;;9.73;;
45326;SDS011;31062;49.678;24.560;2024-02-23T14:35:30;16.30;;;9.73;;
45326;SDS011;31062;49.678;24.560;2024-02-23T14:38:35;15.07;;;8.82;;
45326;SDS011;31062;49.678;24.560;2024-02-23T14:41:41;11.02;;;7.32;;
45326;SDS011;31062;49.678;24.560;2024-02-23T14:44:47;11.80;;;5.82;;
45326;SDS011;31062;49.678;24.560;2024-02-23T14:47:52;8.10;;;6.07;;
45326;SDS011;31062;49.678;24.560;2024-02-23T14:50:58;11.60;;;7.18;;
45326;SDS011;31062;49.678;24.560;2024-02-23T14:54:04;10.23;;;7.45;;
45326;SDS011;31062;49.678;24.560;2024-02-23T14:56:50;10.35;;;7.43;;
45326;SDS011;31062;49.678;24.560;2024-02-23T14:59:35;13.40;;;6.78;;
45326;SDS011;31062;49.678;24.560;2024-02-23T15:02:24;9.35;;;5.88;;
45326;SDS011;31062;49.678;24.560;2024-02-23T15:05:30;14.63;;;6.60;;
45326;SDS011;31062;49.678;24.560;2024-02-23T15:08:36;11.05;;;5.47;;
45326;SDS011;31062;49.678;24.560;2024-02-23T15:11:22;13.35;;;7.05;;
45326;SDS011;31062;49.678;24.560;2024-02-23T15:14:27;9.32;;;5.72;;
45326;SDS011;31062;49.678;24.560;2024-02-23T15:17:33;11.75;;;6.32;;
45326;SDS011;31062;49.678;24.560;2024-02-23T15:20:39;13.73;;;7.53;;
45326;SDS011;31062;49.678;24.560;2024-02-23T15:23:45;10.38;;;6.25;;
45326;SDS011;31062;49.678;24.560;2024-02-23T15:26:52;12.00;;;6.70;;
45326;SDS011;31062;49.678;24.560;2024-02-23T15:29:57;25.45;;;10.57;;
45326;SDS011;31062;49.678;24.560;2024-02-23T15:33:03;12.55;;;6.82;;
45326;SDS011;31062;49.678;24.560;2024-02-23T15:36:09;14.23;;;6.97;;
45326;SDS011;31062;49.678;24.560;2024-02-23T15:39:15;17.00;;;8.20;;
45326;SDS011;31062;49.678;24.560;2024-02-23T15:42:21;14.35;;;7.65;;
45326;SDS011;31062;49.678;24.560;2024-02-23T15:45:27;12.25;;;7.53;;
45326;SDS011;31062;49.678;24.560;2024-02-23T15:48:33;19.35;;;8.85;;
45326;SDS011;31062;49.678;24.560;2024-02-23T15:51:39;11.82;;;8.20;;
45326;SDS011;31062;49.678;24.560;2024-02-23T15:54:46;15.57;;;8.30;;
45326;SDS011;31062;49.678;24.560;2024-02-23T15:57:52;20.02;;;9.52;;
45326;SDS011;31062;49.678;24.560;2024-02-23T16:00:58;14.68;;;9.02;;
45326;SDS011;31062;49.678;24.560;2024-02-23T16:03:44;19.17;;;7.85;;
45326;SDS011;31062;49.678;24.560;2024-02-23T16:06:51;14.55;;;6.55;;
45326;SDS011;31062;49.678;24.560;2024-02-23T16:09:56;11.40;;;6.72;;
45326;SDS011;31062;49.678;24.560;2024-02-23T16:13:02;15.35;;;9.38;;
45326;SDS011;31062;49.678;24.560;2024-02-23T16:16:08;17.17;;;9.48;;
45326;SDS011;31062;49.678;24.560;2024-02-23T16:19:17;13.80;;;7.65;;
45326;SDS011;31062;49.678;24.560;2024-02-23T16:22:23;17.75;;;7.30;;
45326;SDS011;31062;49.678;24.560;2024-02-23T16:25:29;10.65;;;6.75;;
45326;SDS011;31062;49.678;24.560;2024-02-23T16:28:35;13.65;;;8.02;;
45326;SDS011;31062;49.678;24.560;2024-02-23T16:31:42;12.40;;;7.78;;
45326;SDS011;31062;49.678;24.560;2024-02-23T16:34:48;12.00;;;8.25;;
45326;SDS011;31062;49.678;24.560;2024-02-23T16:37:54;13.98;;;8.52;;
45326;SDS011;31062;49.678;24.560;2024-02-23T16:41:00;19.15;;;10.10;;
45326;SDS011;31062;49.678;24.560;2024-02-23T16:44:05;14.90;;;8.65;;
45326;SDS011;31062;49.678;24.560;2024-02-23T16:47:12;11.73;;;6.68;;
45326;SDS011;31062;49.678;24.560;2024-02-23T16:50:18;7.68;;;5.22;;
45326;SDS011;31062;49.678;24.560;2024-02-23T16:53:27;9.23;;;6.45;;
45326;SDS011;31062;49.678;24.560;2024-02-23T16:56:34;8.98;;;4.72;;
45326;SDS011;31062;49.678;24.560;2024-02-23T16:59:39;6.63;;;3.63;;
45326;SDS011;31062;49.678;24.560;2024-02-23T17:02:45;6.85;;;4.35;;
45326;SDS011;31062;49.678;24.560;2024-02-23T17:05:51;8.02;;;4.97;;
45326;SDS011;31062;49.678;24.560;2024-02-23T17:08:57;8.40;;;5.60;;
45326;SDS011;31062;49.678;24.560;2024-02-23T17:12:04;10.30;;;6.93;;
45326;SDS011;31062;49.678;24.560;2024-02-23T17:15:10;10.50;;;6.82;;
45326;SDS011;31062;49.678;24.560;2024-02-23T17:18:19;9.77;;;6.65;;
45326;SDS011;31062;49.678;24.560;2024-02-23T17:21:28;10.95;;;6.40;;
45326;SDS011;31062;49.678;24.560;2024-02-23T17:24:34;9.48;;;5.82;;
45326;SDS011;31062;49.678;24.560;2024-02-23T17:27:40;8.02;;;5.35;;
45326;SDS011;31062;49.678;24.560;2024-02-23T17:30:46;5.45;;;4.40;;
45326;SDS011;31062;49.678;24.560;2024-02-23T17:33:52;5.53;;;4.00;;
45326;SDS011;31062;49.678;24.560;2024-02-23T17:36:58;6.00;;;4.20;;
45326;SDS011;31062;49.678;24.560;2024-02-23T17:40:05;6.28;;;5.15;;
45326;SDS011;31062;49.678;24.560;2024-02-23T17:43:11;9.98;;;6.53;;
45326;SDS011;31062;49.678;24.560;2024-02-23T17:46:17;10.68;;;7.78;;
45326;SDS011;31062;49.678;24.560;2024-02-23T17:49:22;18.00;;;9.82;;
45326;SDS011;31062;49.678;24.560;2024-02-23T17:52:28;13.10;;;9.05;;
45326;SDS011;31062;49.678;24.560;2024-02-23T17:55:34;9.80;;;8.15;;
45326;SDS011;31062;49.678;24.560;2024-02-23T17:58:40;14.23;;;6.90;;
45326;SDS011;31062;49.678;24.560;2024-02-23T18:01:47;7.28;;;5.32;;
45326;SDS011;31062;49.678;24.560;2024-02-23T18:04:53;8.50;;;5.63;;
45326;SDS011;31062;49.678;24.560;2024-02-23T18:07:59;9.73;;;5.97;;
45326;SDS011;31062;49.678;24.560;2024-02-23T18:11:05;11.63;;;7.35;;
45326;SDS011;31062;49.678;24.560;2024-02-23T18:14:12;32.60;;;15.88;;